Time;durP1;ratioP1;P1;durP2;ratioP2;P2;SDS_P1;SDS_P2;PMS_P1;PMS_P2;Temp;Humidity;BMP_temperature;BMP_pressure;BME280_temperature;BME280_humidity;BME280_pressure;Samples;Min_cycle;Max_cycle;Signal;HPM_P1;HPM_P2
2023/08/14 00:01:32;;;;;;;;;13.67;13.00;;;;;21.82;55.86;101041.28;5035683;28;45551;-68
2023/08/14 00:03:57;;;;;;;;;16.00;14.33;;;;;21.82;56.00;101035.97;5036099;28;45371;-70
2023/08/14 00:06:23;;;;;;;;;14.67;13.00;;;;;21.86;56.11;101034.06;5036017;28;45277;-70
2023/08/14 00:08:52;;;;;;;;;14.33;12.67;;;;;21.83;55.96;101021.72;5036096;28;45487;-68
2023/08/14 00:11:23;;;;;;;;;16.67;14.00;;;;;21.87;56.01;101023.31;5038968;28;45483;-69
2023/08/14 00:13:54;;;;;;;;;16.67;12.67;;;;;21.81;55.77;101012.91;5039283;28;45441;-69
2023/08/14 00:16:20;;;;;;;;;14.33;11.67;;;;;21.83;55.86;101024.38;5038616;28;45732;-69
2023/08/14 00:18:46;;;;;;;;;10.67;10.33;;;;;21.97;56.24;101027.38;5039391;28;46117;-69
2023/08/14 00:21:12;;;;;;;;;16.00;13.00;;;;;21.96;56.32;101020.28;5039993;28;45449;-70
2023/08/14 00:23:38;;;;;;;;;10.67;10.67;;;;;21.98;56.03;101004.22;5040368;28;45475;-69
2023/08/14 00:26:04;;;;;;;;;11.33;9.33;;;;;22.00;56.21;101013.03;5039327;28;45482;-73
2023/08/14 00:28:30;;;;;;;;;14.33;9.00;;;;;22.01;56.13;101007.63;5039114;28;45539;-72
2023/08/14 00:30:56;;;;;;;;;11.33;10.00;;;;;22.05;55.94;101003.03;5039450;28;45283;-71
2023/08/14 00:33:21;;;;;;;;;11.00;10.00;;;;;22.01;55.94;101012.94;5039106;28;45413;-71
2023/08/14 00:35:47;;;;;;;;;10.00;10.00;;;;;22.05;55.77;101018.19;5039689;28;45376;-71
2023/08/14 00:38:12;;;;;;;;;13.33;10.33;;;;;21.90;56.31;101017.88;5038968;28;46182;-71
2023/08/14 00:40:39;;;;;;;;;10.67;10.33;;;;;21.75;56.37;101003.34;5038801;28;45421;-71
2023/08/14 00:43:04;;;;;;;;;10.00;9.00;;;;;21.72;56.17;100978.63;5038767;28;45425;-71
2023/08/14 00:45:31;;;;;;;;;11.00;9.33;;;;;21.47;56.37;100955.59;5039507;28;45464;-71
2023/08/14 00:47:56;;;;;;;;;8.67;7.67;;;;;21.60;56.33;100962.19;5054466;28;45421;-72
2023/08/14 00:50:23;;;;;;;;;7.00;6.67;;;;;21.68;56.78;100987.66;5034042;28;45656;-71
2023/08/14 00:52:54;;;;;;;;;8.00;7.33;;;;;21.54;56.92;100981.06;5023899;28;45668;-71
2023/08/14 00:55:22;;;;;;;;;6.33;6.33;;;;;21.63;56.89;100986.97;5057598;28;45514;-71
2023/08/14 00:57:50;;;;;;;;;5.67;5.67;;;;;21.57;57.07;100983.63;5039651;28;46369;-71
2023/08/14 01:00:17;;;;;;;;;9.33;6.33;;;;;21.64;57.17;100994.03;5039005;28;45454;-70
2023/08/14 01:02:43;;;;;;;;;14.00;8.00;;;;;21.67;56.77;100988.59;5039231;28;45575;-70
2023/08/14 01:05:10;;;;;;;;;9.00;7.67;;;;;21.50;57.13;100966.16;5039518;28;45519;-70
2023/08/14 01:07:37;;;;;;;;;8.00;7.33;;;;;21.64;56.77;100986.94;5036540;28;45672;-71
2023/08/14 01:10:03;;;;;;;;;7.33;6.67;;;;;21.64;56.85;100991.38;5033387;28;45445;-71
2023/08/14 01:12:53;;;;;;;;;8.33;6.67;;;;;21.69;56.77;100997.38;5038094;28;45348;-71
2023/08/14 01:15:25;;;;;;;;;9.33;7.33;;;;;21.69;57.05;100984.94;5035903;28;45375;-71
2023/08/14 01:17:57;;;;;;;;;10.33;7.00;;;;;21.62;56.75;100977.22;5037810;28;45557;-70
2023/08/14 01:20:25;;;;;;;;;9.00;6.67;;;;;21.63;56.97;100969.19;5034882;28;45465;-70
2023/08/14 01:22:55;;;;;;;;;11.00;8.00;;;;;21.72;56.89;100973.28;5036148;28;45628;-71
2023/08/14 01:25:30;;;;;;;;;8.67;8.33;;;;;21.64;57.20;100980.72;5038725;28;45608;-70
2023/08/14 01:27:56;;;;;;;;;13.33;10.00;;;;;21.55;57.88;100985.50;5038537;28;46355;-71
2023/08/14 01:30:22;;;;;;;;;8.00;7.00;;;;;21.39;57.31;100945.25;5038201;28;45485;-71
2023/08/14 01:32:49;;;;;;;;;7.33;7.00;;;;;21.50;57.58;100973.28;5038107;28;45533;-72
2023/08/14 01:35:18;;;;;;;;;12.67;8.67;;;;;21.47;57.81;100976.91;5037300;28;45605;-71
2023/08/14 01:37:50;;;;;;;;;10.33;9.00;;;;;21.46;57.86;100979.66;5038086;28;46779;-71
2023/08/14 01:40:28;;;;;;;;;8.33;7.33;;;;;21.47;57.90;100976.06;5038442;28;45273;-71
2023/08/14 01:43:04;;;;;;;;;10.33;9.67;;;;;21.37;57.46;100965.72;5038346;28;45428;-70
2023/08/14 01:45:33;;;;;;;;;11.33;9.33;;;;;21.30;57.80;100971.34;5038888;28;45504;-71
2023/08/14 01:48:00;;;;;;;;;13.00;9.33;;;;;21.20;57.94;100965.53;5038010;28;45403;-71
2023/08/14 01:50:29;;;;;;;;;10.00;7.00;;;;;21.06;58.33;100963.38;5039053;28;45316;-70
2023/08/14 01:52:56;;;;;;;;;10.00;8.00;;;;;20.87;58.30;100922.41;5038641;28;45460;-70
2023/08/14 01:55:24;;;;;;;;;11.00;8.00;;;;;21.27;58.60;100991.00;5037505;28;45444;-72
2023/08/14 01:57:51;;;;;;;;;11.67;9.33;;;;;21.26;58.50;100983.94;5038558;28;46230;-70
2023/08/14 02:00:17;;;;;;;;;13.00;11.67;;;;;21.27;58.88;100974.16;5037579;28;45396;-70
2023/08/14 02:02:43;;;;;;;;;11.00;10.67;;;;;21.22;58.96;100978.78;5038013;28;45503;-70
2023/08/14 02:05:08;;;;;;;;;11.67;10.33;;;;;21.17;58.95;100973.63;5038245;28;45437;-71
2023/08/14 02:07:34;;;;;;;;;13.33;9.33;;;;;21.12;59.07;100980.94;5039059;28;45651;-70
2023/08/14 02:09:59;;;;;;;;;10.67;10.67;;;;;20.97;59.67;100977.03;5037969;28;45425;-70
2023/08/14 02:12:25;;;;;;;;;14.00;10.33;;;;;20.81;60.28;100963.44;5037777;28;45379;-71
2023/08/14 02:14:51;;;;;;;;;14.67;12.00;;;;;20.71;60.56;100940.75;5039095;28;45575;-71
2023/08/14 02:17:16;;;;;;;;;11.67;10.33;;;;;20.74;60.72;100954.81;5037904;28;45627;-70
2023/08/14 02:19:42;;;;;;;;;9.67;9.67;;;;;20.75;60.65;100961.00;5037524;28;45469;-70
2023/08/14 02:22:07;;;;;;;;;11.00;9.67;;;;;20.74;61.07;100965.47;5037968;28;45430;-71
2023/08/14 02:24:34;;;;;;;;;12.67;10.33;;;;;20.83;60.73;100976.69;5037862;28;45389;-71
2023/08/14 02:26:59;;;;;;;;;11.00;9.67;;;;;20.78;60.71;100957.34;5037209;28;45475;-71
2023/08/14 02:29:25;;;;;;;;;11.00;9.33;;;;;20.68;60.47;100933.72;5037433;28;45385;-71
2023/08/14 02:31:50;;;;;;;;;12.00;10.33;;;;;20.66;60.60;100926.75;5037379;28;45525;-70
2023/08/14 02:34:45;;;;;;;;;13.00;10.33;;;;;20.70;60.95;100952.31;5037426;28;45389;-70
2023/08/14 02:37:11;;;;;;;;;15.33;11.00;;;;;20.66;61.20;100946.22;5037951;28;45621;-72
2023/08/14 02:39:37;;;;;;;;;10.00;9.67;;;;;20.48;61.01;100921.13;5037265;28;45279;-72
2023/08/14 02:42:03;;;;;;;;;11.00;11.00;;;;;20.43;60.98;100933.75;5037718;28;45480;-70
2023/08/14 02:44:30;;;;;;;;;9.33;7.33;;;;;20.51;61.05;100944.97;5038356;28;45412;-71
2023/08/14 02:46:56;;;;;;;;;12.33;10.00;;;;;20.46;61.12;100938.09;5037117;28;46209;-70
2023/08/14 02:49:22;;;;;;;;;11.00;8.00;;;;;20.29;61.51;100904.97;5036823;28;45441;-71
2023/08/14 02:51:47;;;;;;;;;9.00;8.33;;;;;20.29;61.72;100925.38;5036912;28;45413;-71
2023/08/14 02:54:13;;;;;;;;;15.67;9.00;;;;;20.15;61.50;100909.91;5036985;28;46053;-71
2023/08/14 02:56:39;;;;;;;;;11.00;9.33;;;;;20.23;61.46;100921.13;5036719;28;46118;-70
2023/08/14 02:59:04;;;;;;;;;9.67;8.33;;;;;20.15;61.78;100909.91;5037557;28;45265;-71
2023/08/14 03:01:30;;;;;;;;;15.00;9.00;;;;;20.26;61.55;100914.84;5036844;28;45510;-71
2023/08/14 03:03:55;;;;;;;;;9.67;8.00;;;;;20.33;61.34;100919.91;5038806;28;45489;-70
2023/08/14 03:06:21;;;;;;;;;9.67;8.67;;;;;20.38;61.50;100921.50;5038260;28;45429;-70
2023/08/14 03:08:50;;;;;;;;;9.00;8.00;;;;;20.25;61.12;100903.34;5036376;28;45721;-71
2023/08/14 03:11:15;;;;;;;;;9.00;7.33;;;;;20.07;61.22;100882.69;5037575;28;45460;-72
2023/08/14 03:13:41;;;;;;;;;8.67;7.67;;;;;20.20;60.97;100912.41;5038540;28;45319;-70
2023/08/14 03:16:09;;;;;;;;;8.33;6.00;;;;;20.07;60.69;100877.38;5037352;28;46212;-71
2023/08/14 03:18:37;;;;;;;;;7.33;7.33;;;;;20.37;60.60;100923.31;5037173;28;45295;-71
2023/08/14 03:21:03;;;;;;;;;6.00;6.00;;;;;20.37;60.34;100925.09;5035025;28;45387;-71
2023/08/14 03:23:28;;;;;;;;;8.33;8.00;;;;;20.20;60.75;100889.34;5036625;28;45445;-71
2023/08/14 03:25:54;;;;;;;;;8.00;6.00;;;;;20.40;60.68;100930.31;5036287;28;45820;-71
2023/08/14 03:28:19;;;;;;;;;6.33;5.67;;;;;20.41;60.65;100916.97;5036662;28;45469;-71
2023/08/14 03:30:45;;;;;;;;;8.00;7.00;;;;;20.38;60.45;100901.09;5052063;28;45749;-71
2023/08/14 03:33:10;;;;;;;;;6.33;5.67;;;;;20.30;60.83;100887.22;5053462;28;45458;-69
2023/08/14 03:35:37;;;;;;;;;8.00;8.00;;;;;20.40;60.85;100922.34;5036301;28;45995;-70
2023/08/14 03:38:02;;;;;;;;;7.33;6.00;;;;;20.31;61.01;100923.50;5034792;28;45411;-70
2023/08/14 03:40:30;;;;;;;;;11.33;7.67;;;;;20.26;61.30;100917.50;5036577;28;45393;-70
2023/08/14 03:42:55;;;;;;;;;5.33;5.00;;;;;20.17;61.50;100907.19;5035701;28;45453;-69
2023/08/14 03:45:21;;;;;;;;;7.00;6.67;;;;;20.32;61.40;100915.50;5037094;28;46247;-71
2023/08/14 03:47:46;;;;;;;;;11.00;7.33;;;;;20.16;61.19;100873.53;5036719;28;45384;-71
2023/08/14 03:50:12;;;;;;;;;16.67;9.00;;;;;20.29;61.37;100906.78;5036044;28;45295;-71
2023/08/14 03:52:37;;;;;;;;;3.33;3.33;;;;;20.26;61.34;100910.41;5037506;28;45710;-70
2023/08/14 03:55:06;;;;;;;;;12.67;7.67;;;;;20.18;61.91;100895.63;5036223;28;45291;-70
2023/08/14 03:57:31;;;;;;;;;9.67;7.67;;;;;20.23;61.32;100899.84;5036241;28;45941;-70
2023/08/14 03:59:57;;;;;;;;;10.00;6.00;;;;;20.11;61.41;100881.69;5036321;28;45504;-70
2023/08/14 04:02:23;;;;;;;;;7.67;6.00;;;;;20.25;61.91;100899.81;5038102;28;45532;-72
2023/08/14 04:04:48;;;;;;;;;11.33;7.00;;;;;20.21;61.44;100880.41;5037044;28;47709;-70
2023/08/14 04:07:14;;;;;;;;;10.00;8.00;;;;;20.21;60.96;100880.41;5036964;28;45441;-70
2023/08/14 04:09:40;;;;;;;;;7.00;6.00;;;;;20.30;60.37;100904.03;5040038;28;45568;-70
2023/08/14 04:12:06;;;;;;;;;8.33;5.33;;;;;20.28;60.59;100903.22;5055281;28;45433;-70
2023/08/14 04:14:38;;;;;;;;;7.00;6.00;;;;;20.28;60.27;100905.88;5037751;28;45495;-73
2023/08/14 04:17:04;;;;;;;;;6.00;5.00;;;;;20.20;59.98;100907.09;5032573;28;45669;-70
2023/08/14 04:19:34;;;;;;;;;6.00;5.67;;;;;20.26;59.79;100922.81;5036413;28;45355;-69
2023/08/14 04:22:08;;;;;;;;;14.33;9.67;;;;;20.24;59.56;100912.25;5036233;28;45492;-69
2023/08/14 04:24:37;;;;;;;;;6.00;5.00;;;;;20.23;59.35;100912.28;5036406;28;45633;-69
2023/08/14 04:27:36;;;;;;;;;5.67;5.67;;;;;20.21;59.59;100899.03;5035099;28;45657;-69
2023/08/14 04:30:06;;;;;;;;;5.67;5.00;;;;;20.17;59.71;100901.84;5036610;28;45397;-71
2023/08/14 04:32:32;;;;;;;;;6.33;5.33;;;;;20.12;59.53;100902.03;5037625;28;45415;-69
2023/08/14 04:34:58;;;;;;;;;7.00;5.33;;;;;20.09;59.73;100905.66;5037261;28;45987;-70
2023/08/14 04:37:23;;;;;;;;;8.33;5.33;;;;;20.04;59.86;100901.44;5036932;28;45382;-70
2023/08/14 04:39:49;;;;;;;;;5.33;5.00;;;;;20.00;59.77;100898.00;5035978;28;45456;-70
2023/08/14 04:42:34;;;;;;;;;6.00;4.00;;;;;20.00;59.90;100889.16;5035809;28;45584;-70
2023/08/14 04:45:01;;;;;;;;;6.00;6.00;;;;;20.06;60.24;100904.91;5027498;28;46095;-68
2023/08/14 04:47:28;;;;;;;;;5.33;5.33;;;;;19.87;60.04;100878.09;5050954;28;45427;-69
2023/08/14 04:49:54;;;;;;;;;10.33;6.67;;;;;20.04;59.99;100904.94;5035740;28;45519;-70
2023/08/14 04:52:22;;;;;;;;;9.00;5.33;;;;;19.72;59.78;100850.25;5035085;28;45530;-70
2023/08/14 04:54:48;;;;;;;;;7.00;5.00;;;;;19.97;59.99;100894.59;5035905;28;46431;-69
2023/08/14 04:57:13;;;;;;;;;10.33;6.00;;;;;19.96;59.80;100890.22;5037947;28;45429;-69
2023/08/14 04:59:42;;;;;;;;;9.33;6.00;;;;;19.97;60.13;100900.78;5038858;28;45478;-68
2023/08/14 05:02:08;;;;;;;;;7.33;6.67;;;;;19.93;59.74;100896.47;5038931;28;45435;-69
2023/08/14 05:04:33;;;;;;;;;8.00;5.67;;;;;19.85;60.41;100896.75;5054045;28;46599;-69
2023/08/14 05:06:59;;;;;;;;;5.67;5.00;;;;;19.92;60.03;100908.91;5031529;28;45433;-69
2023/08/14 05:09:25;;;;;;;;;7.00;4.67;;;;;19.87;60.61;100913.50;5037245;28;45285;-69
2023/08/14 05:11:50;;;;;;;;;8.33;6.00;;;;;19.88;60.60;100909.06;5037036;28;45682;-68
2023/08/14 05:14:18;;;;;;;;;9.00;7.33;;;;;19.83;60.67;100901.22;5054083;28;46876;-69
2023/08/14 05:16:46;;;;;;;;;8.67;5.00;;;;;19.80;61.08;100900.47;5037679;28;45496;-70
2023/08/14 05:19:40;;;;;;;;;5.67;5.67;;;;;19.81;60.67;100908.41;5038778;28;45458;-71
2023/08/14 05:22:06;;;;;;;;;6.33;6.00;;;;;19.78;61.15;100915.59;5051693;28;45557;-69
2023/08/14 05:24:35;;;;;;;;;11.67;8.00;;;;;19.76;61.02;100920.97;5031410;28;46180;-71
2023/08/14 05:27:01;;;;;;;;;6.00;6.00;;;;;19.57;61.34;100878.16;5031918;28;45373;-68
2023/08/14 05:29:27;;;;;;;;;5.33;5.33;;;;;19.77;60.97;100900.59;5038232;28;45486;-70
2023/08/14 05:31:54;;;;;;;;;5.67;5.33;;;;;19.72;61.14;100895.44;5037810;28;45482;-69
2023/08/14 05:34:20;;;;;;;;;7.00;5.00;;;;;19.80;60.66;100896.03;5037791;28;45307;-69
2023/08/14 05:36:46;;;;;;;;;5.00;5.00;;;;;19.80;60.95;100893.38;5038433;28;45468;-69
2023/08/14 05:39:12;;;;;;;;;7.00;6.00;;;;;19.92;60.49;100906.25;5038283;28;45769;-69
2023/08/14 05:41:38;;;;;;;;;8.67;6.00;;;;;19.96;60.31;100898.19;5036970;28;45752;-69
2023/08/14 05:44:05;;;;;;;;;10.67;6.00;;;;;20.01;60.12;100904.22;5037684;28;45863;-69
2023/08/14 05:46:31;;;;;;;;;5.00;4.33;;;;;19.96;60.00;100884.91;5052957;28;45601;-69
2023/08/14 05:48:56;;;;;;;;;6.67;6.67;;;;;19.66;60.00;100829.16;5033007;28;45569;-69
2023/08/14 05:51:22;;;;;;;;;6.67;4.33;;;;;19.84;59.81;100851.63;5035588;28;45482;-68
2023/08/14 05:53:48;;;;;;;;;5.00;4.33;;;;;20.02;59.77;100866.06;5038362;28;46348;-69
2023/08/14 05:56:13;;;;;;;;;10.00;6.00;;;;;20.01;60.14;100867.84;5039398;28;45397;-69
2023/08/14 05:58:39;;;;;;;;;7.33;7.00;;;;;20.03;59.88;100862.50;5039785;28;45289;-69
2023/08/14 06:01:04;;;;;;;;;6.67;5.00;;;;;20.12;59.82;100870.09;5039387;28;45460;-69
2023/08/14 06:03:34;;;;;;;;;8.67;4.67;;;;;20.00;60.21;100862.56;5038940;28;45443;-69
2023/08/14 06:05:59;;;;;;;;;9.00;6.00;;;;;20.06;59.99;100867.69;5037249;28;46008;-69
2023/08/14 06:08:25;;;;;;;;;6.67;5.67;;;;;20.08;60.06;100876.47;5037438;28;45496;-69
2023/08/14 06:10:50;;;;;;;;;7.00;5.33;;;;;20.10;59.99;100867.53;5038231;28;45418;-69
2023/08/14 06:13:17;;;;;;;;;8.67;5.67;;;;;20.12;60.08;100871.00;5037674;28;45449;-70
2023/08/14 06:15:42;;;;;;;;;6.67;6.00;;;;;20.31;59.87;100886.28;5032216;28;45392;-70
2023/08/14 06:18:08;;;;;;;;;6.33;6.00;;;;;20.40;59.92;100882.44;5037385;28;45429;-69
2023/08/14 06:20:34;;;;;;;;;9.33;7.00;;;;;20.54;59.61;100888.09;5037784;28;45341;-69
2023/08/14 06:23:00;;;;;;;;;10.67;6.00;;;;;20.39;59.33;100838.16;5035867;28;48089;-69
2023/08/14 06:25:37;;;;;;;;;8.67;7.67;;;;;20.87;58.65;100890.47;5037392;28;45323;-70
2023/08/14 06:28:03;;;;;;;;;6.00;6.00;;;;;21.02;58.50;100892.53;5037124;28;45390;-69
2023/08/14 06:30:32;;;;;;;;;6.67;5.33;;;;;21.06;58.19;100887.97;5037489;28;45508;-70
2023/08/14 06:32:58;;;;;;;;;6.67;6.00;;;;;21.14;57.94;100884.06;5037009;28;46302;-69
2023/08/14 06:35:24;;;;;;;;;8.33;6.00;;;;;20.85;57.93;100817.78;5037232;28;45473;-69
2023/08/14 06:37:50;;;;;;;;;8.67;6.33;;;;;21.25;57.25;100864.13;5037624;28;45447;-70
2023/08/14 06:40:16;;;;;;;;;8.33;6.67;;;;;21.40;57.22;100876.84;5037410;28;45681;-70
2023/08/14 06:42:41;;;;;;;;;8.00;7.00;;;;;21.46;56.67;100879.25;5037037;28;45504;-70
2023/08/14 06:45:07;;;;;;;;;9.00;6.33;;;;;21.40;56.66;100874.19;5037188;28;45490;-69
2023/08/14 06:47:41;;;;;;;;;7.33;5.67;;;;;21.50;55.79;100880.03;5037053;28;45320;-70
2023/08/14 06:50:08;;;;;;;;;6.67;5.00;;;;;21.47;55.71;100872.13;5037512;28;45382;-70
2023/08/14 06:52:33;;;;;;;;;7.00;7.00;;;;;21.43;55.69;100890.06;5035134;28;46470;-70
2023/08/14 06:54:59;;;;;;;;;5.67;5.00;;;;;21.45;56.19;100890.88;5036899;28;46269;-70
2023/08/14 06:57:25;;;;;;;;;5.33;5.33;;;;;21.35;55.95;100870.81;5036783;28;45437;-71
2023/08/14 06:59:51;;;;;;;;;6.00;6.00;;;;;21.30;55.92;100859.47;5038572;28;45484;-69
2023/08/14 07:02:17;;;;;;;;;5.33;5.33;;;;;21.61;55.90;100896.41;5038164;28;45434;-69
2023/08/14 07:04:43;;;;;;;;;5.33;5.00;;;;;21.64;54.94;100890.97;5038348;28;45567;-69
2023/08/14 07:07:09;;;;;;;;;5.00;5.00;;;;;21.70;55.31;100900.50;5037989;28;45449;-70
2023/08/14 07:09:35;;;;;;;;;4.33;3.67;;;;;21.76;54.84;100903.78;5038262;28;45409;-69
2023/08/14 07:12:00;;;;;;;;;6.00;5.33;;;;;21.71;53.94;100875.56;5036691;28;45312;-69
2023/08/14 07:14:31;;;;;;;;;3.33;3.33;;;;;21.88;54.54;100898.84;5036941;28;45286;-72
2023/08/14 07:16:57;;;;;;;;;4.67;4.33;;;;;22.06;54.48;100911.41;5036312;28;45610;-72
2023/08/14 07:19:23;;;;;;;;;6.00;6.00;;;;;22.19;53.57;100907.28;5036311;28;45432;-74
2023/08/14 07:21:48;;;;;;;;;3.00;3.00;;;;;22.16;53.81;100894.09;5036304;28;45500;-73
2023/08/14 07:24:14;;;;;;;;;6.67;4.67;;;;;22.25;53.54;100860.81;5038498;28;45254;-72
2023/08/14 07:26:41;;;;;;;;;5.67;5.00;;;;;22.42;53.26;100894.75;5043927;28;45278;-72
2023/08/14 07:29:07;;;;;;;;;6.00;5.00;;;;;22.51;53.13;100897.00;5037211;28;45744;-73
2023/08/14 07:31:33;;;;;;;;;7.00;5.00;;;;;22.32;53.14;100864.06;5028446;28;45810;-73
2023/08/14 07:33:58;;;;;;;;;4.67;4.67;;;;;22.28;52.81;100859.81;5035313;28;45845;-72
2023/08/14 07:36:24;;;;;;;;;6.00;5.67;;;;;22.56;52.93;100911.00;5051244;28;45842;-73
2023/08/14 07:38:53;;;;;;;;;8.33;6.67;;;;;22.39;52.39;100874.41;5036474;28;45489;-73
2023/08/14 07:41:19;;;;;;;;;6.00;6.00;;;;;22.26;52.86;100885.69;5033571;28;48318;-73
2023/08/14 07:43:44;;;;;;;;;7.00;5.00;;;;;21.91;53.66;100856.94;5035582;28;46064;-73
2023/08/14 07:46:11;;;;;;;;;9.00;7.00;;;;;21.71;54.07;100857.81;5034368;28;45418;-73
2023/08/14 07:48:37;;;;;;;;;5.00;3.67;;;;;21.72;54.00;100880.84;5035854;28;45623;-73
2023/08/14 07:51:03;;;;;;;;;5.00;5.00;;;;;21.91;54.18;100907.59;5035635;28;45379;-73
2023/08/14 07:53:29;;;;;;;;;8.33;6.33;;;;;21.58;54.25;100829.94;5015633;28;45496;-72
2023/08/14 07:55:58;;;;;;;;;5.67;4.67;;;;;21.85;54.04;100865.19;5025715;28;45514;-73
2023/08/14 07:58:25;;;;;;;;;6.33;5.33;;;;;21.77;53.84;100859.34;5032148;28;45791;-72
2023/08/14 08:00:52;;;;;;;;;4.67;4.33;;;;;21.81;53.99;100861.81;5037502;28;45418;-75
2023/08/14 08:03:17;;;;;;;;;7.00;4.33;;;;;21.53;53.01;100807.94;5037499;28;45480;-75
2023/08/14 08:05:44;;;;;;;;;7.33;5.67;;;;;21.67;53.36;100839.34;5037497;28;45272;-73
2023/08/14 08:08:10;;;;;;;;;6.00;5.00;;;;;22.13;53.68;100902.19;5037830;28;45533;-72
2023/08/14 08:10:36;;;;;;;;;5.33;5.33;;;;;22.07;52.97;100872.25;5035091;28;47116;-73
2023/08/14 08:13:03;;;;;;;;;5.00;5.00;;;;;22.16;53.37;100890.53;5034809;28;45547;-74
2023/08/14 08:15:32;;;;;;;;;6.33;4.33;;;;;22.36;53.24;100900.38;5031037;28;45556;-74
2023/08/14 08:17:58;;;;;;;;;6.33;6.00;;;;;22.10;53.03;100856.13;5030112;28;45821;-73
2023/08/14 08:20:24;;;;;;;;;4.33;4.00;;;;;21.87;53.11;100833.13;5033783;28;46486;-73
2023/08/14 08:22:50;;;;;;;;;4.33;4.33;;;;;21.95;53.00;100841.69;5031111;28;45558;-74
2023/08/14 08:25:17;;;;;;;;;6.33;4.67;;;;;22.20;53.23;100869.03;5042116;28;45517;-72
2023/08/14 08:27:42;;;;;;;;;4.00;4.00;;;;;22.49;53.22;100890.84;5033687;28;45439;-73
2023/08/14 08:30:09;;;;;;;;;5.33;5.33;;;;;22.27;52.70;100813.59;5037091;28;45397;-72
2023/08/14 08:32:35;;;;;;;;;8.33;5.00;;;;;22.75;52.06;100895.00;5038225;28;45398;-72
2023/08/14 08:35:00;;;;;;;;;8.67;6.00;;;;;22.35;52.17;100821.25;5039198;28;45600;-72
2023/08/14 08:37:26;;;;;;;;;7.33;4.00;;;;;22.47;52.14;100819.81;5040637;28;45344;-73
2023/08/14 08:39:52;;;;;;;;;5.00;5.00;;;;;22.35;52.08;100816.78;5039119;28;45460;-72
2023/08/14 08:42:18;;;;;;;;;5.67;3.33;;;;;22.84;52.40;100896.41;5034039;28;45599;-73
2023/08/14 08:44:45;;;;;;;;;6.67;5.00;;;;;22.60;51.97;100848.53;5052737;28;45383;-74
2023/08/14 08:47:19;;;;;;;;;3.67;3.33;;;;;22.79;52.15;100872.56;5037905;28;45620;-72
2023/08/14 08:49:46;;;;;;;;;4.33;4.33;;;;;22.60;51.86;100831.66;5038556;28;47003;-70
2023/08/14 08:52:12;;;;;;;;;6.67;5.00;;;;;22.96;51.82;100877.13;5035375;28;45383;-73
2023/08/14 08:54:41;;;;;;;;;4.33;4.00;;;;;22.91;51.97;100852.44;5052426;28;45547;-71
2023/08/14 08:57:14;;;;;;;;;6.00;4.67;;;;;23.05;52.08;100866.03;5028401;28;45679;-72
2023/08/14 08:59:40;;;;;;;;;6.00;4.67;;;;;23.29;51.50;100853.28;5037980;28;45417;-70
2023/08/14 09:02:08;;;;;;;;;5.67;4.00;;;;;23.58;51.38;100880.38;5038484;28;45367;-72
2023/08/14 09:04:34;;;;;;;;;5.00;4.00;;;;;23.51;51.04;100844.19;5038650;28;45402;-71
2023/08/14 09:07:00;;;;;;;;;6.33;5.00;;;;;23.66;50.86;100835.41;5038138;28;45516;-72
2023/08/14 09:09:26;;;;;;;;;9.33;5.00;;;;;23.56;50.43;100798.53;5036971;28;47131;-73
2023/08/14 09:11:54;;;;;;;;;6.00;5.00;;;;;24.06;50.27;100862.81;5031597;28;45505;-72
2023/08/14 09:14:22;;;;;;;;;4.50;4.25;;;;;24.02;50.12;100853.22;5053968;28;45565;-72
2023/08/14 09:16:54;;;;;;;;;4.00;4.00;;;;;23.80;50.54;100821.38;5038063;28;45263;-72
2023/08/14 09:19:20;;;;;;;;;3.75;3.75;;;;;23.87;50.27;100816.53;5038122;28;46158;-70
2023/08/14 09:21:46;;;;;;;;;5.00;4.00;;;;;24.14;50.73;100838.31;5037587;28;45546;-72
2023/08/14 09:24:16;;;;;;;;;4.00;4.00;;;;;24.24;50.53;100838.69;5037922;28;45268;-71
2023/08/14 09:26:45;;;;;;;;;5.50;4.00;;;;;24.31;50.12;100845.44;5038288;28;45691;-71
2023/08/14 09:29:13;;;;;;;;;4.00;4.00;;;;;24.23;50.64;100829.81;5037144;28;45495;-73
2023/08/14 09:31:45;;;;;;;;;6.00;5.25;;;;;24.36;50.57;100834.50;5035498;28;45492;-72
2023/08/14 09:34:21;;;;;;;;;4.50;4.00;;;;;24.48;50.54;100840.06;5036643;28;45526;-72
2023/08/14 09:36:48;;;;;;;;;4.00;4.00;;;;;24.48;50.40;100848.09;5036993;28;45503;-72
2023/08/14 09:39:13;;;;;;;;;5.00;5.00;;;;;24.57;50.35;100843.22;5034857;28;45602;-73
2023/08/14 09:41:40;;;;;;;;;8.00;4.00;;;;;24.49;50.67;100804.34;5035264;28;45555;-73
2023/08/14 09:44:06;;;;;;;;;6.25;5.25;;;;;24.90;50.05;100835.97;5034429;28;45582;-71
2023/08/14 09:46:32;;;;;;;;;5.50;4.25;;;;;25.00;49.84;100838.13;5032574;28;45669;-72
2023/08/14 09:48:58;;;;;;;;;7.25;5.25;;;;;25.05;49.80;100844.09;5034110;28;46106;-72
2023/08/14 09:51:24;;;;;;;;;6.00;5.00;;;;;25.08;50.03;100830.50;5032419;28;45580;-73
2023/08/14 09:53:56;;;;;;;;;7.75;6.00;;;;;25.15;49.79;100821.16;5033941;28;45858;-71
2023/08/14 09:56:23;;;;;;;;;4.50;4.00;;;;;24.98;49.65;100817.63;5035789;28;45653;-74
2023/08/14 09:58:50;;;;;;;;;5.50;4.00;;;;;25.25;50.10;100835.81;5036713;28;45580;-70
2023/08/14 10:01:17;;;;;;;;;7.00;5.00;;;;;25.33;49.49;100817.47;5037608;28;45826;-72
2023/08/14 10:03:49;;;;;;;;;8.00;5.00;;;;;25.57;49.20;100830.38;5036130;28;45489;-72
2023/08/14 10:06:15;;;;;;;;;7.00;4.00;;;;;25.70;49.00;100831.38;5037539;28;45358;-72
2023/08/14 10:08:44;;;;;;;;;6.00;4.25;;;;;25.78;49.30;100820.19;5021988;28;47926;-72
2023/08/14 10:11:13;;;;;;;;;5.25;5.25;;;;;25.98;49.13;100824.38;5037141;28;45429;-72
2023/08/14 10:13:51;;;;;;;;;9.00;6.75;;;;;26.08;48.85;100813.94;5036831;28;45601;-72
2023/08/14 10:16:23;;;;;;;;;5.25;4.50;;;;;26.11;49.15;100811.94;5036971;28;45663;-72
2023/08/14 10:19:00;;;;;;;;;5.50;5.50;;;;;25.83;49.34;100791.25;5037004;28;46529;-71
2023/08/14 10:21:31;;;;;;;;;5.25;5.25;;;;;25.27;49.28;100732.06;5036670;28;45651;-72
2023/08/14 10:24:04;;;;;;;;;8.25;5.00;;;;;25.70;50.06;100801.88;5036011;28;45463;-72
2023/08/14 10:26:33;;;;;;;;;5.00;5.00;;;;;25.80;50.33;100818.28;5037515;28;45645;-74
2023/08/14 10:28:59;;;;;;;;;6.25;6.00;;;;;25.52;49.97;100757.38;5037478;28;46497;-73
2023/08/14 10:31:27;;;;;;;;;6.50;4.50;;;;;25.94;49.96;100804.06;5052536;28;45405;-73
2023/08/14 10:33:56;;;;;;;;;5.00;4.25;;;;;26.07;49.63;100802.34;5037107;28;45465;-73
2023/08/14 10:36:22;;;;;;;;;4.50;4.50;;;;;26.20;49.81;100799.78;5037064;28;45331;-70
2023/08/14 10:38:50;;;;;;;;;8.25;5.00;;;;;26.22;49.29;100790.66;5036608;28;46194;-69
2023/08/14 10:41:17;;;;;;;;;7.00;6.00;;;;;26.18;49.48;100775.69;5038939;28;45399;-70
2023/08/14 10:43:47;;;;;;;;;5.00;5.00;;;;;26.37;49.13;100779.91;5035758;28;45515;-68
2023/08/14 10:46:16;;;;;;;;;5.50;5.00;;;;;26.40;48.65;100761.75;5036980;28;45282;-69
2023/08/14 10:48:44;;;;;;;;;6.50;5.75;;;;;26.55;48.71;100773.41;5038110;28;46205;-68
2023/08/14 10:51:12;;;;;;;;;7.00;5.00;;;;;26.63;48.37;100757.63;5033842;28;45336;-70
2023/08/14 10:53:40;;;;;;;;;4.50;4.00;;;;;26.86;48.53;100777.63;5025507;28;46536;-69
2023/08/14 10:56:06;;;;;;;;;9.25;5.00;;;;;26.95;47.91;100776.16;5034185;28;45396;-68
2023/08/14 10:58:32;;;;;;;;;7.25;5.75;;;;;27.03;48.09;100779.22;5034936;28;45493;-72
2023/08/14 11:01:12;;;;;;;;;7.50;5.00;;;;;27.08;48.17;100782.44;5041510;28;45836;-70
2023/08/14 11:03:57;;;;;;;;;8.00;6.00;;;;;27.17;47.90;100780.09;5035262;28;45616;-73
2023/08/14 11:06:25;;;;;;;;;5.25;4.25;;;;;27.24;47.57;100782.34;5033383;28;45496;-72
2023/08/14 11:08:58;;;;;;;;;9.00;6.00;;;;;27.10;47.18;100768.91;5032728;28;45521;-71
2023/08/14 11:11:25;;;;;;;;;7.50;4.00;;;;;27.37;46.16;100787.72;5032250;28;45565;-72
2023/08/14 11:13:52;;;;;;;;;7.75;5.75;;;;;26.82;46.60;100671.31;5027542;28;45465;-73
2023/08/14 11:16:19;;;;;;;;;10.25;6.00;;;;;27.49;45.86;100768.06;5033465;28;46006;-72
2023/08/14 11:18:45;;;;;;;;;5.00;5.00;;;;;27.48;45.30;100750.22;5033576;28;47125;-72
2023/08/14 11:21:13;;;;;;;;;6.75;5.25;;;;;27.56;45.78;100765.81;5033549;28;45553;-73
2023/08/14 11:23:38;;;;;;;;;8.75;5.25;;;;;27.31;45.74;100718.22;5035207;28;45405;-72